sensor_id;sensor_type;location;lat;lon;timestamp;P1;durP1;ratioP1;P2;durP2;ratioP2
20369;SDS011;10344;47.592;9.600;2022-12-19T06:03:19;24.55;;;16.45;;
20369;SDS011;10344;47.592;9.600;2022-12-19T06:06:40;24.60;;;16.58;;
20369;SDS011;10344;47.592;9.600;2022-12-19T06:09:08;24.42;;;15.95;;
20369;SDS011;10344;47.592;9.600;2022-12-19T06:18:15;25.88;;;15.77;;
20369;SDS011;10344;47.592;9.600;2022-12-19T06:21:49;24.75;;;16.15;;
20369;SDS011;10344;47.592;9.600;2022-12-19T06:28:09;24.23;;;16.30;;
20369;SDS011;10344;47.592;9.600;2022-12-19T06:31:34;28.70;;;17.15;;
20369;SDS011;10344;47.592;9.600;2022-12-19T06:35:04;26.15;;;16.73;;
20369;SDS011;10344;47.592;9.600;2022-12-19T07:06:56;26.08;;;15.90;;
20369;SDS011;10344;47.592;9.600;2022-12-19T07:29:48;22.05;;;14.63;;
20369;SDS011;10344;47.592;9.600;2022-12-19T07:33:02;20.63;;;13.47;;
20369;SDS011;10344;47.592;9.600;2022-12-19T07:35:39;20.65;;;13.50;;
20369;SDS011;10344;47.592;9.600;2022-12-19T07:57:42;19.20;;;11.93;;
20369;SDS011;10344;47.592;9.600;2022-12-19T08:00:08;19.52;;;11.68;;
20369;SDS011;10344;47.592;9.600;2022-12-19T08:02:34;18.35;;;11.95;;
20369;SDS011;10344;47.592;9.600;2022-12-19T08:05:00;17.23;;;12.07;;
20369;SDS011;10344;47.592;9.600;2022-12-19T08:07:25;15.23;;;10.70;;
20369;SDS011;10344;47.592;9.600;2022-12-19T08:09:51;18.50;;;12.40;;
20369;SDS011;10344;47.592;9.600;2022-12-19T08:12:16;16.97;;;11.70;;
20369;SDS011;10344;47.592;9.600;2022-12-19T08:14:42;20.02;;;12.95;;
20369;SDS011;10344;47.592;9.600;2022-12-19T08:17:08;17.63;;;11.93;;
20369;SDS011;10344;47.592;9.600;2022-12-19T08:19:34;18.10;;;11.97;;
20369;SDS011;10344;47.592;9.600;2022-12-19T08:21:59;16.83;;;11.57;;
20369;SDS011;10344;47.592;9.600;2022-12-19T08:24:25;15.10;;;11.07;;
20369;SDS011;10344;47.592;9.600;2022-12-19T08:26:51;15.57;;;10.88;;
20369;SDS011;10344;47.592;9.600;2022-12-19T08:29:18;17.75;;;11.13;;
20369;SDS011;10344;47.592;9.600;2022-12-19T08:31:46;17.90;;;11.93;;
20369;SDS011;10344;47.592;9.600;2022-12-19T08:34:12;18.60;;;13.40;;
20369;SDS011;10344;47.592;9.600;2022-12-19T08:36:37;18.37;;;13.13;;
20369;SDS011;10344;47.592;9.600;2022-12-19T08:39:04;17.58;;;11.70;;
20369;SDS011;10344;47.592;9.600;2022-12-19T08:41:29;14.93;;;10.35;;
20369;SDS011;10344;47.592;9.600;2022-12-19T08:44:05;17.63;;;12.02;;
20369;SDS011;10344;47.592;9.600;2022-12-19T08:46:31;17.70;;;11.65;;
20369;SDS011;10344;47.592;9.600;2022-12-19T08:48:56;14.67;;;10.73;;
20369;SDS011;10344;47.592;9.600;2022-12-19T08:51:22;16.15;;;11.70;;
20369;SDS011;10344;47.592;9.600;2022-12-19T08:53:53;17.92;;;13.05;;
20369;SDS011;10344;47.592;9.600;2022-12-19T08:56:19;14.60;;;10.82;;
20369;SDS011;10344;47.592;9.600;2022-12-19T08:58:46;14.75;;;11.70;;
20369;SDS011;10344;47.592;9.600;2022-12-19T09:01:13;18.15;;;12.93;;
20369;SDS011;10344;47.592;9.600;2022-12-19T09:03:43;16.15;;;11.65;;
20369;SDS011;10344;47.592;9.600;2022-12-19T09:06:09;15.95;;;11.70;;
20369;SDS011;10344;47.592;9.600;2022-12-19T09:08:41;16.25;;;12.20;;
20369;SDS011;10344;47.592;9.600;2022-12-19T09:11:08;18.35;;;13.43;;
20369;SDS011;10344;47.592;9.600;2022-12-19T09:13:39;17.35;;;12.90;;
20369;SDS011;10344;47.592;9.600;2022-12-19T09:16:13;17.15;;;12.45;;
20369;SDS011;10344;47.592;9.600;2022-12-19T09:18:40;17.50;;;12.93;;
20369;SDS011;10344;47.592;9.600;2022-12-19T09:21:08;16.92;;;12.65;;
20369;SDS011;10344;47.592;9.600;2022-12-19T09:23:36;18.23;;;13.75;;
20369;SDS011;10344;47.592;9.600;2022-12-19T09:26:03;16.93;;;12.40;;
20369;SDS011;10344;47.592;9.600;2022-12-19T09:28:31;16.60;;;11.93;;
20369;SDS011;10344;47.592;9.600;2022-12-19T09:30:58;17.52;;;13.40;;
20369;SDS011;10344;47.592;9.600;2022-12-19T09:33:26;18.17;;;13.63;;
20369;SDS011;10344;47.592;9.600;2022-12-19T09:35:53;16.48;;;11.90;;
20369;SDS011;10344;47.592;9.600;2022-12-19T09:38:20;18.42;;;13.52;;
20369;SDS011;10344;47.592;9.600;2022-12-19T09:46:46;16.83;;;12.98;;
20369;SDS011;10344;47.592;9.600;2022-12-19T09:49:39;19.52;;;13.52;;
20369;SDS011;10344;47.592;9.600;2022-12-19T10:00:19;27.60;;;20.55;;
20369;SDS011;10344;47.592;9.600;2022-12-19T10:02:48;24.83;;;18.92;;
20369;SDS011;10344;47.592;9.600;2022-12-19T10:08:04;15.90;;;11.35;;
20369;SDS011;10344;47.592;9.600;2022-12-19T10:11:22;15.87;;;11.73;;
20369;SDS011;10344;47.592;9.600;2022-12-19T10:14:05;17.55;;;13.25;;
20369;SDS011;10344;47.592;9.600;2022-12-19T10:35:28;16.05;;;11.90;;
20369;SDS011;10344;47.592;9.600;2022-12-19T10:40:38;18.33;;;13.35;;
20369;SDS011;10344;47.592;9.600;2022-12-19T11:00:15;23.60;;;15.77;;
20369;SDS011;10344;47.592;9.600;2022-12-19T11:02:45;24.13;;;15.20;;
20369;SDS011;10344;47.592;9.600;2022-12-19T11:08:10;23.67;;;15.65;;
20369;SDS011;10344;47.592;9.600;2022-12-19T11:10:39;25.98;;;16.60;;
20369;SDS011;10344;47.592;9.600;2022-12-19T11:15:47;24.50;;;16.13;;
20369;SDS011;10344;47.592;9.600;2022-12-19T11:18:14;22.58;;;15.10;;
20369;SDS011;10344;47.592;9.600;2022-12-19T11:20:40;21.85;;;14.27;;
20369;SDS011;10344;47.592;9.600;2022-12-19T11:23:18;24.38;;;16.55;;
20369;SDS011;10344;47.592;9.600;2022-12-19T11:25:51;24.10;;;16.05;;
20369;SDS011;10344;47.592;9.600;2022-12-19T11:33:45;23.53;;;15.63;;
20369;SDS011;10344;47.592;9.600;2022-12-19T11:38:54;25.65;;;16.83;;
20369;SDS011;10344;47.592;9.600;2022-12-19T11:43:56;20.98;;;14.73;;
20369;SDS011;10344;47.592;9.600;2022-12-19T11:49:16;21.85;;;13.85;;
20369;SDS011;10344;47.592;9.600;2022-12-19T11:55:02;21.60;;;15.55;;
20369;SDS011;10344;47.592;9.600;2022-12-19T11:57:29;23.40;;;15.90;;
20369;SDS011;10344;47.592;9.600;2022-12-19T11:59:58;26.08;;;16.90;;
20369;SDS011;10344;47.592;9.600;2022-12-19T12:02:32;25.67;;;17.57;;
20369;SDS011;10344;47.592;9.600;2022-12-19T12:10:59;24.73;;;16.90;;
20369;SDS011;10344;47.592;9.600;2022-12-19T12:22:29;26.65;;;18.17;;
20369;SDS011;10344;47.592;9.600;2022-12-19T12:30:21;23.85;;;16.20;;
20369;SDS011;10344;47.592;9.600;2022-12-19T12:38:07;23.35;;;16.80;;
20369;SDS011;10344;47.592;9.600;2022-12-19T12:43:23;25.85;;;17.50;;
20369;SDS011;10344;47.592;9.600;2022-12-19T12:46:03;25.58;;;17.95;;
20369;SDS011;10344;47.592;9.600;2022-12-19T12:56:07;24.30;;;17.27;;
20369;SDS011;10344;47.592;9.600;2022-12-19T13:02:05;23.80;;;16.40;;
20369;SDS011;10344;47.592;9.600;2022-12-19T13:04:58;24.73;;;17.60;;
20369;SDS011;10344;47.592;9.600;2022-12-19T13:07:42;26.42;;;17.80;;
20369;SDS011;10344;47.592;9.600;2022-12-19T13:10:17;26.35;;;17.50;;
20369;SDS011;10344;47.592;9.600;2022-12-19T13:13:46;23.92;;;16.88;;
20369;SDS011;10344;47.592;9.600;2022-12-19T13:23:40;24.63;;;16.47;;
20369;SDS011;10344;47.592;9.600;2022-12-19T13:27:00;22.35;;;15.20;;
20369;SDS011;10344;47.592;9.600;2022-12-19T15:06:44;23.45;;;17.33;;
20369;SDS011;10344;47.592;9.600;2022-12-19T15:09:34;23.48;;;17.38;;
20369;SDS011;10344;47.592;9.600;2022-12-19T15:51:07;39.53;;;25.98;;
20369;SDS011;10344;47.592;9.600;2022-12-19T15:53:49;36.83;;;24.77;;
20369;SDS011;10344;47.592;9.600;2022-12-19T15:56:32;40.08;;;27.20;;
20369;SDS011;10344;47.592;9.600;2022-12-19T15:59:37;40.40;;;27.58;;
20369;SDS011;10344;47.592;9.600;2022-12-19T16:02:25;40.55;;;26.95;;
20369;SDS011;10344;47.592;9.600;2022-12-19T16:05:28;43.53;;;30.17;;
20369;SDS011;10344;47.592;9.600;2022-12-19T16:07:55;57.15;;;37.25;;
20369;SDS011;10344;47.592;9.600;2022-12-19T16:31:13;33.47;;;23.95;;
20369;SDS011;10344;47.592;9.600;2022-12-19T16:33:40;35.73;;;24.50;;
20369;SDS011;10344;47.592;9.600;2022-12-19T16:36:07;36.10;;;24.52;;
20369;SDS011;10344;47.592;9.600;2022-12-19T16:38:33;33.40;;;23.65;;
20369;SDS011;10344;47.592;9.600;2022-12-19T16:40:59;32.20;;;23.52;;
20369;SDS011;10344;47.592;9.600;2022-12-19T16:43:37;33.03;;;23.38;;
20369;SDS011;10344;47.592;9.600;2022-12-19T16:46:06;38.22;;;25.48;;
20369;SDS011;10344;47.592;9.600;2022-12-19T16:48:39;30.08;;;20.83;;
20369;SDS011;10344;47.592;9.600;2022-12-19T16:51:07;38.77;;;26.20;;
20369;SDS011;10344;47.592;9.600;2022-12-19T16:53:47;39.10;;;26.80;;
20369;SDS011;10344;47.592;9.600;2022-12-19T16:58:53;37.50;;;24.08;;
20369;SDS011;10344;47.592;9.600;2022-12-19T17:01:22;36.53;;;24.92;;
20369;SDS011;10344;47.592;9.600;2022-12-19T17:03:50;38.28;;;25.83;;
20369;SDS011;10344;47.592;9.600;2022-12-19T17:09:01;32.38;;;21.77;;
20369;SDS011;10344;47.592;9.600;2022-12-19T17:16:38;33.03;;;23.85;;
20369;SDS011;10344;47.592;9.600;2022-12-19T17:30:36;31.80;;;23.30;;
20369;SDS011;10344;47.592;9.600;2022-12-19T18:35:19;18.42;;;13.20;;
20369;SDS011;10344;47.592;9.600;2022-12-19T18:37:54;18.35;;;12.93;;
20369;SDS011;10344;47.592;9.600;2022-12-19T18:40:50;16.13;;;11.70;;
20369;SDS011;10344;47.592;9.600;2022-12-19T18:43:23;15.32;;;11.20;;
20369;SDS011;10344;47.592;9.600;2022-12-19T18:46:47;14.93;;;10.55;;
20369;SDS011;10344;47.592;9.600;2022-12-19T19:02:57;23.25;;;17.27;;
20369;SDS011;10344;47.592;9.600;2022-12-19T19:05:47;25.30;;;18.42;;
20369;SDS011;10344;47.592;9.600;2022-12-19T19:11:38;22.65;;;16.48;;
20369;SDS011;10344;47.592;9.600;2022-12-19T19:14:33;22.08;;;15.50;;
20369;SDS011;10344;47.592;9.600;2022-12-19T19:17:28;22.52;;;15.00;;
20369;SDS011;10344;47.592;9.600;2022-12-19T19:20:17;23.67;;;16.85;;
20369;SDS011;10344;47.592;9.600;2022-12-19T19:22:53;19.33;;;14.20;;
20369;SDS011;10344;47.592;9.600;2022-12-19T19:25:57;16.25;;;12.52;;
20369;SDS011;10344;47.592;9.600;2022-12-19T19:28:45;17.87;;;11.90;;
20369;SDS011;10344;47.592;9.600;2022-12-19T19:31:12;18.67;;;12.98;;
20369;SDS011;10344;47.592;9.600;2022-12-19T19:33:53;18.05;;;12.25;;
20369;SDS011;10344;47.592;9.600;2022-12-19T19:36:50;15.25;;;11.48;;
20369;SDS011;10344;47.592;9.600;2022-12-19T19:39:23;15.25;;;10.95;;
20369;SDS011;10344;47.592;9.600;2022-12-19T19:42:08;19.20;;;12.52;;
20369;SDS011;10344;47.592;9.600;2022-12-19T19:44:53;21.23;;;15.02;;
20369;SDS011;10344;47.592;9.600;2022-12-19T19:47:53;20.67;;;13.52;;
20369;SDS011;10344;47.592;9.600;2022-12-19T19:50:24;18.20;;;13.50;;
20369;SDS011;10344;47.592;9.600;2022-12-19T19:53:23;16.37;;;12.33;;
20369;SDS011;10344;47.592;9.600;2022-12-19T19:57:10;18.88;;;13.00;;
20369;SDS011;10344;47.592;9.600;2022-12-19T19:59:47;19.58;;;13.77;;
20369;SDS011;10344;47.592;9.600;2022-12-19T20:02:35;18.67;;;13.48;;
20369;SDS011;10344;47.592;9.600;2022-12-19T20:08:44;15.55;;;11.63;;
20369;SDS011;10344;47.592;9.600;2022-12-19T20:11:31;14.57;;;11.05;;
20369;SDS011;10344;47.592;9.600;2022-12-19T20:14:01;13.68;;;10.98;;
20369;SDS011;10344;47.592;9.600;2022-12-19T20:16:48;12.82;;;10.25;;
20369;SDS011;10344;47.592;9.600;2022-12-19T20:19:37;18.55;;;13.32;;
20369;SDS011;10344;47.592;9.600;2022-12-19T20:22:43;18.30;;;13.23;;
20369;SDS011;10344;47.592;9.600;2022-12-19T20:25:13;30.05;;;19.13;;
20369;SDS011;10344;47.592;9.600;2022-12-19T20:27:59;34.13;;;20.50;;
20369;SDS011;10344;47.592;9.600;2022-12-19T20:31:01;42.35;;;24.60;;
20369;SDS011;10344;47.592;9.600;2022-12-19T20:33:29;37.28;;;23.42;;
20369;SDS011;10344;47.592;9.600;2022-12-19T20:36:44;30.88;;;20.83;;
20369;SDS011;10344;47.592;9.600;2022-12-19T20:39:36;31.30;;;20.33;;
20369;SDS011;10344;47.592;9.600;2022-12-19T20:42:16;32.88;;;22.60;;
20369;SDS011;10344;47.592;9.600;2022-12-19T20:45:22;36.15;;;23.17;;
20369;SDS011;10344;47.592;9.600;2022-12-19T20:48:10;35.07;;;22.80;;
20369;SDS011;10344;47.592;9.600;2022-12-19T20:51:00;34.22;;;21.35;;
20369;SDS011;10344;47.592;9.600;2022-12-19T20:53:52;33.08;;;20.98;;
20369;SDS011;10344;47.592;9.600;2022-12-19T20:59:41;37.43;;;23.53;;
20369;SDS011;10344;47.592;9.600;2022-12-19T21:02:54;30.15;;;18.92;;
20369;SDS011;10344;47.592;9.600;2022-12-19T21:05:56;25.90;;;17.23;;
20369;SDS011;10344;47.592;9.600;2022-12-19T21:08:50;23.38;;;16.17;;
20369;SDS011;10344;47.592;9.600;2022-12-19T21:11:35;23.80;;;15.43;;
20369;SDS011;10344;47.592;9.600;2022-12-19T21:14:31;20.30;;;14.07;;
20369;SDS011;10344;47.592;9.600;2022-12-19T21:16:58;20.52;;;14.38;;
20369;SDS011;10344;47.592;9.600;2022-12-19T21:19:53;20.40;;;14.75;;
20369;SDS011;10344;47.592;9.600;2022-12-19T21:22:34;20.13;;;14.02;;
20369;SDS011;10344;47.592;9.600;2022-12-19T21:25:14;21.08;;;15.15;;
20369;SDS011;10344;47.592;9.600;2022-12-19T21:27:39;17.98;;;12.73;;
20369;SDS011;10344;47.592;9.600;2022-12-19T21:30:18;15.43;;;11.48;;
20369;SDS011;10344;47.592;9.600;2022-12-19T21:33:37;17.73;;;11.50;;
20369;SDS011;10344;47.592;9.600;2022-12-19T21:36:06;18.50;;;12.55;;
20369;SDS011;10344;47.592;9.600;2022-12-19T21:38:45;22.83;;;15.13;;
20369;SDS011;10344;47.592;9.600;2022-12-19T21:41:19;22.15;;;14.20;;
20369;SDS011;10344;47.592;9.600;2022-12-19T21:43:53;36.60;;;19.80;;
20369;SDS011;10344;47.592;9.600;2022-12-19T21:46:41;39.90;;;20.15;;
20369;SDS011;10344;47.592;9.600;2022-12-19T21:49:38;33.17;;;18.17;;
20369;SDS011;10344;47.592;9.600;2022-12-19T21:52:23;24.77;;;15.30;;
20369;SDS011;10344;47.592;9.600;2022-12-19T21:55:05;20.92;;;12.95;;
20369;SDS011;10344;47.592;9.600;2022-12-19T21:57:57;20.40;;;11.93;;
20369;SDS011;10344;47.592;9.600;2022-12-19T22:00:25;21.00;;;13.23;;
20369;SDS011;10344;47.592;9.600;2022-12-19T22:02:57;20.85;;;13.90;;
20369;SDS011;10344;47.592;9.600;2022-12-19T22:05:34;17.55;;;12.95;;
20369;SDS011;10344;47.592;9.600;2022-12-19T22:08:22;21.65;;;14.23;;
20369;SDS011;10344;47.592;9.600;2022-12-19T22:10:57;17.30;;;11.82;;
20369;SDS011;10344;47.592;9.600;2022-12-19T22:13:45;20.17;;;13.77;;
20369;SDS011;10344;47.592;9.600;2022-12-19T22:16:22;20.23;;;13.13;;
20369;SDS011;10344;47.592;9.600;2022-12-19T22:19:04;17.77;;;12.23;;
20369;SDS011;10344;47.592;9.600;2022-12-19T22:21:42;15.65;;;12.10;;
20369;SDS011;10344;47.592;9.600;2022-12-19T22:24:12;16.90;;;11.57;;
20369;SDS011;10344;47.592;9.600;2022-12-19T22:27:01;18.07;;;13.27;;
20369;SDS011;10344;47.592;9.600;2022-12-19T22:29:44;18.17;;;12.90;;
20369;SDS011;10344;47.592;9.600;2022-12-19T22:32:37;18.60;;;13.38;;
20369;SDS011;10344;47.592;9.600;2022-12-19T22:35:20;18.50;;;12.98;;
20369;SDS011;10344;47.592;9.600;2022-12-19T22:38:05;18.42;;;12.93;;
20369;SDS011;10344;47.592;9.600;2022-12-19T22:41:02;16.77;;;12.30;;
20369;SDS011;10344;47.592;9.600;2022-12-19T22:43:50;15.80;;;11.30;;
20369;SDS011;10344;47.592;9.600;2022-12-19T22:46:31;14.60;;;11.30;;
20369;SDS011;10344;47.592;9.600;2022-12-19T22:49:06;15.32;;;11.18;;
20369;SDS011;10344;47.592;9.600;2022-12-19T22:51:52;12.55;;;9.95;;
20369;SDS011;10344;47.592;9.600;2022-12-19T22:54:27;15.38;;;11.63;;
20369;SDS011;10344;47.592;9.600;2022-12-19T22:57:05;17.15;;;12.57;;
20369;SDS011;10344;47.592;9.600;2022-12-19T22:59:45;14.67;;;11.50;;
20369;SDS011;10344;47.592;9.600;2022-12-19T23:02:27;15.63;;;11.73;;
20369;SDS011;10344;47.592;9.600;2022-12-19T23:04:59;19.15;;;12.50;;
20369;SDS011;10344;47.592;9.600;2022-12-19T23:07:36;16.30;;;11.55;;
20369;SDS011;10344;47.592;9.600;2022-12-19T23:10:10;14.82;;;11.25;;
20369;SDS011;10344;47.592;9.600;2022-12-19T23:12:49;14.23;;;10.85;;
20369;SDS011;10344;47.592;9.600;2022-12-19T23:15:22;15.45;;;11.25;;
20369;SDS011;10344;47.592;9.600;2022-12-19T23:17:53;15.23;;;11.00;;
20369;SDS011;10344;47.592;9.600;2022-12-19T23:20:21;12.35;;;9.20;;
20369;SDS011;10344;47.592;9.600;2022-12-19T23:23:07;12.88;;;9.95;;
20369;SDS011;10344;47.592;9.600;2022-12-19T23:25:39;11.15;;;9.30;;
20369;SDS011;10344;47.592;9.600;2022-12-19T23:28:09;11.85;;;9.48;;
20369;SDS011;10344;47.592;9.600;2022-12-19T23:30:38;10.77;;;9.10;;
20369;SDS011;10344;47.592;9.600;2022-12-19T23:33:21;11.38;;;8.68;;
20369;SDS011;10344;47.592;9.600;2022-12-19T23:36:29;11.37;;;8.33;;
20369;SDS011;10344;47.592;9.600;2022-12-19T23:39:00;11.43;;;8.57;;
20369;SDS011;10344;47.592;9.600;2022-12-19T23:41:34;10.88;;;8.07;;
20369;SDS011;10344;47.592;9.600;2022-12-19T23:44:32;11.30;;;8.82;;
20369;SDS011;10344;47.592;9.600;2022-12-19T23:47:21;10.63;;;8.27;;
20369;SDS011;10344;47.592;9.600;2022-12-19T23:50:11;11.75;;;8.73;;
20369;SDS011;10344;47.592;9.600;2022-12-19T23:53:15;12.20;;;8.95;;
20369;SDS011;10344;47.592;9.600;2022-12-19T23:55:48;11.00;;;7.63;;
20369;SDS011;10344;47.592;9.600;2022-12-19T23:58:39;10.48;;;8.35;;
